Time;durP1;ratioP1;P1;durP2;ratioP2;P2;SDS_P1;SDS_P2;PMS_P1;PMS_P2;Temp;Humidity;BMP_temperature;BMP_pressure;BME280_temperature;BME280_humidity;BME280_pressure;Samples;Min_cycle;Max_cycle;Signal;HPM_P1;HPM_P2
2023/06/03 00:01:05;;;;;;;;;;;;;;;21.18;53.69;99228.66;5090572;28;19951;-41
2023/06/03 00:03:33;;;;;;;;;;;;;;;21.37;53.93;99218.72;5090601;28;19959;-41
2023/06/03 00:05:59;;;;;;;;;;;;;;;21.62;52.95;99228.47;5090324;28;19934;-41
2023/06/03 00:08:24;;;;;;;;;;;;;;;21.37;53.42;99226.81;5090504;28;19912;-42
2023/06/03 00:10:50;;;;;;;;;;;;;;;21.56;52.96;99228.81;5090613;28;19916;-41
2023/06/03 00:13:15;;;;;;;;;;;;;;;20.89;55.22;99229.47;5090618;28;19912;-41
2023/06/03 00:15:41;;;;;;;;;;;;;;;20.96;54.80;99235.38;5090931;28;19912;-41
2023/06/03 00:18:07;;;;;;;;;;;;;;;20.94;55.18;99247.53;5090719;28;19950;-42
2023/06/03 00:20:36;;;;;;;;;;;;;;;20.87;55.95;99251.38;5090739;28;19916;-41
2023/06/03 00:23:03;;;;;;;;;;;;;;;21.27;54.66;99243.97;5090749;28;19927;-41
2023/06/03 00:25:29;;;;;;;;;;;;;;;21.39;54.98;99243.59;5090771;28;19912;-41
2023/06/03 00:27:54;;;;;;;;;;;;;;;21.52;54.31;99250.25;5094145;28;19923;-41
2023/06/03 00:30:19;;;;;;;;;;;;;;;21.46;53.24;99259.53;5094627;28;19928;-41
2023/06/03 00:32:45;;;;;;;;;;;;;;;21.22;53.62;99265.66;5094537;28;19912;-41
2023/06/03 00:35:10;;;;;;;;;;;;;;;21.03;53.69;99262.88;5094547;28;20295;-41
2023/06/03 00:37:35;;;;;;;;;;;;;;;20.98;53.09;99262.94;5094556;28;19942;-41
2023/06/03 00:40:00;;;;;;;;;;;;;;;20.96;53.48;99264.28;5093859;28;19923;-41
2023/06/03 00:42:26;;;;;;;;;;;;;;;21.12;52.49;99270.38;5093009;28;20336;-41
2023/06/03 00:44:51;;;;;;;;;;;;;;;20.99;52.47;99269.94;5094064;28;19969;-41
2023/06/03 00:47:18;;;;;;;;;;;;;;;21.12;51.30;99265.78;5094368;28;19912;-41
2023/06/03 00:49:43;;;;;;;;;;;;;;;21.16;51.41;99269.53;5094417;28;19961;-41
2023/06/03 00:52:09;;;;;;;;;;;;;;;21.32;51.52;99264.75;5094073;28;19920;-41
2023/06/03 00:54:34;;;;;;;;;;;;;;;21.28;51.39;99256.44;5094081;28;20360;-41
2023/06/03 00:57:01;;;;;;;;;;;;;;;21.16;51.09;99263.31;5094057;28;19996;-41
2023/06/03 00:59:26;;;;;;;;;;;;;;;21.21;51.25;99264.06;5093688;28;19934;-41
2023/06/03 01:01:52;;;;;;;;;;;;;;;21.25;51.19;99256.19;5094031;28;19916;-41
2023/06/03 01:04:21;;;;;;;;;;;;;;;21.04;51.97;99255.56;5093934;28;19912;-40
2023/06/03 01:07:10;;;;;;;;;;;;;;;21.07;51.64;99255.00;5093796;28;19923;-41
2023/06/03 01:09:53;;;;;;;;;;;;;;;21.19;51.32;99251.91;5093621;28;19912;-41
2023/06/03 01:12:28;;;;;;;;;;;;;;;21.17;51.34;99262.19;5093363;28;19912;-41
2023/06/03 01:15:02;;;;;;;;;;;;;;;21.25;51.51;99257.00;5093677;28;19912;-41
2023/06/03 01:17:30;;;;;;;;;;;;;;;21.55;50.68;99248.84;5093474;28;19912;-41
2023/06/03 01:19:56;;;;;;;;;;;;;;;21.48;50.46;99255.44;5093668;28;20287;-41
2023/06/03 01:22:24;;;;;;;;;;;;;;;21.38;50.84;99251.97;5093564;28;19916;-41
2023/06/03 01:24:50;;;;;;;;;;;;;;;21.43;50.33;99247.31;5093837;28;19912;-42
2023/06/03 01:27:16;;;;;;;;;;;;;;;21.56;50.31;99250.47;5093556;28;20356;-41
2023/06/03 01:29:42;;;;;;;;;;;;;;;21.24;51.48;99244.53;5093075;28;19928;-41
2023/06/03 01:32:11;;;;;;;;;;;;;;;21.36;50.78;99240.63;5093517;28;19916;-41
2023/06/03 01:34:37;;;;;;;;;;;;;;;21.00;51.43;99235.56;5093017;28;20012;-41
2023/06/03 01:37:02;;;;;;;;;;;;;;;21.05;51.57;99240.94;5093271;28;19947;-41
2023/06/03 01:39:28;;;;;;;;;;;;;;;21.23;50.93;99239.44;5091419;28;19916;-41
2023/06/03 01:41:53;;;;;;;;;;;;;;;21.27;50.84;99241.28;5093340;28;19973;-41
2023/06/03 01:44:19;;;;;;;;;;;;;;;21.30;50.87;99239.88;5093213;28;19969;-41
2023/06/03 01:46:44;;;;;;;;;;;;;;;21.47;50.10;99242.97;5093196;28;19912;-41
2023/06/03 01:49:09;;;;;;;;;;;;;;;21.36;50.24;99243.34;5093058;28;19912;-41
2023/06/03 01:51:35;;;;;;;;;;;;;;;21.42;50.09;99240.31;5093085;28;19916;-41
2023/06/03 01:54:00;;;;;;;;;;;;;;;21.39;50.26;99237.38;5092929;28;19977;-41
2023/06/03 01:56:26;;;;;;;;;;;;;;;21.54;50.26;99245.34;5092866;28;20344;-41
2023/06/03 01:58:51;;;;;;;;;;;;;;;21.52;50.30;99235.91;5092742;28;19916;-41
2023/06/03 02:01:16;;;;;;;;;;;;;;;21.56;50.55;99245.06;5092954;28;20354;-41
2023/06/03 02:03:41;;;;;;;;;;;;;;;21.59;50.30;99239.06;5092888;28;19918;-41
2023/06/03 02:06:07;;;;;;;;;;;;;;;21.65;49.93;99232.50;5092966;28;19912;-41
2023/06/03 02:08:32;;;;;;;;;;;;;;;21.71;49.80;99236.75;5092689;28;20308;-41
2023/06/03 02:10:57;;;;;;;;;;;;;;;21.83;49.27;99239.84;5092683;28;19912;-41
2023/06/03 02:13:23;;;;;;;;;;;;;;;21.53;49.85;99238.31;5092693;28;19913;-41
2023/06/03 02:15:48;;;;;;;;;;;;;;;21.41;50.18;99232.47;5092673;28;19912;-41
2023/06/03 02:18:14;;;;;;;;;;;;;;;20.86;52.14;99244.34;5092712;28;19942;-41
2023/06/03 02:20:40;;;;;;;;;;;;;;;20.98;52.66;99246.72;5092641;28;19916;-41
2023/06/03 02:23:06;;;;;;;;;;;;;;;21.07;52.47;99250.38;5092392;28;19912;-41
2023/06/03 02:25:32;;;;;;;;;;;;;;;21.07;53.05;99250.38;5092290;28;19919;-41
2023/06/03 02:27:58;;;;;;;;;;;;;;;20.98;52.99;99254.81;5092689;28;19935;-41
2023/06/03 02:30:24;;;;;;;;;;;;;;;20.99;52.80;99258.31;5092078;28;20303;-41
2023/06/03 02:32:50;;;;;;;;;;;;;;;21.03;52.57;99253.94;5092120;28;19919;-41
2023/06/03 02:35:15;;;;;;;;;;;;;;;21.08;52.50;99262.03;5092150;28;19912;-40
2023/06/03 02:37:41;;;;;;;;;;;;;;;21.06;53.10;99250.69;5092143;28;20352;-41
2023/06/03 02:40:09;;;;;;;;;;;;;;;21.08;52.57;99259.31;5092051;28;19961;-41
2023/06/03 02:42:36;;;;;;;;;;;;;;;21.18;52.33;99261.91;5092030;28;19920;-41
2023/06/03 02:45:01;;;;;;;;;;;;;;;20.71;53.16;99260.69;5092011;28;19935;-42
2023/06/03 02:47:27;;;;;;;;;;;;;;;20.98;53.18;99268.34;5091834;28;19967;-41
2023/06/03 02:49:52;;;;;;;;;;;;;;;20.91;53.73;99267.06;5091046;28;19920;-41
2023/06/03 02:52:17;;;;;;;;;;;;;;;21.01;53.48;99267.75;5091924;28;19918;-41
2023/06/03 02:54:42;;;;;;;;;;;;;;;21.07;52.98;99268.50;5092056;28;20402;-41
2023/06/03 02:57:08;;;;;;;;;;;;;;;21.05;53.00;99268.00;5091933;28;20236;-41
2023/06/03 02:59:33;;;;;;;;;;;;;;;21.13;52.88;99272.78;5091569;28;19916;-41
2023/06/03 03:01:58;;;;;;;;;;;;;;;21.12;53.26;99270.38;5091563;28;19926;-42
2023/06/03 03:04:26;;;;;;;;;;;;;;;21.13;53.02;99271.97;5091522;28;19913;-41
2023/06/03 03:06:54;;;;;;;;;;;;;;;21.17;52.92;99275.72;5091740;28;19923;-41
2023/06/03 03:09:19;;;;;;;;;;;;;;;21.16;53.19;99277.63;5091444;28;19920;-41
2023/06/03 03:11:44;;;;;;;;;;;;;;;21.11;53.66;99274.97;5091443;28;19922;-41
2023/06/03 03:14:09;;;;;;;;;;;;;;;21.02;54.67;99277.50;5091728;28;19919;-41
2023/06/03 03:16:35;;;;;;;;;;;;;;;21.06;54.26;99278.53;5091656;28;19953;-41
2023/06/03 03:19:00;;;;;;;;;;;;;;;21.00;53.72;99266.16;5091716;28;19916;-41
2023/06/03 03:21:25;;;;;;;;;;;;;;;21.17;53.50;99278.44;5091180;28;20020;-41
2023/06/03 03:23:51;;;;;;;;;;;;;;;21.18;53.08;99288.97;5090488;28;19916;-42
2023/06/03 03:26:21;;;;;;;;;;;;;;;21.22;53.04;99283.81;5091126;28;19912;-41
2023/06/03 03:28:46;;;;;;;;;;;;;;;20.33;53.60;99284.69;5091337;28;19935;-41
2023/06/03 03:31:14;;;;;;;;;;;;;;;20.83;52.46;99295.50;5090787;28;19924;-40
2023/06/03 03:33:39;;;;;;;;;;;;;;;20.98;52.59;99289.16;5090763;28;19912;-41
2023/06/03 03:36:22;;;;;;;;;;;;;;;21.06;52.34;99299.38;5091129;28;19973;-41
2023/06/03 03:38:51;;;;;;;;;;;;;;;21.14;52.23;99301.47;5090762;28;19935;-41
2023/06/03 03:41:17;;;;;;;;;;;;;;;21.08;51.92;99303.41;5091134;28;19920;-41
2023/06/03 03:43:42;;;;;;;;;;;;;;;20.55;53.00;99287.00;5090926;28;19969;-41
2023/06/03 03:46:09;;;;;;;;;;;;;;;21.06;52.24;99302.09;5090668;28;19912;-41
2023/06/03 03:48:34;;;;;;;;;;;;;;;21.43;51.52;99306.88;5090794;28;19939;-41
2023/06/03 03:51:00;;;;;;;;;;;;;;;21.73;50.94;99310.38;5090992;28;19958;-41
2023/06/03 03:53:26;;;;;;;;;;;;;;;21.94;50.23;99319.09;5090947;28;19966;-41
2023/06/03 03:55:52;;;;;;;;;;;;;;;22.04;50.50;99315.44;5090988;28;20385;-41
2023/06/03 03:58:28;;;;;;;;;;;;;;;22.01;50.78;99310.63;5090435;28;20015;-41
2023/06/03 04:01:15;;;;;;;;;;;;;;;22.16;51.07;99309.59;5090781;28;20387;-41
2023/06/03 04:03:42;;;;;;;;;;;;;;;22.43;50.39;99311.72;5094604;28;19916;-41
2023/06/03 04:06:09;;;;;;;;;;;;;;;22.29;49.96;99308.91;5094684;28;19911;-42
2023/06/03 04:08:40;;;;;;;;;;;;;;;22.48;49.98;99300.78;5094603;28;19939;-42
2023/06/03 04:11:06;;;;;;;;;;;;;;;22.50;49.65;99306.72;5092447;28;19912;-41
2023/06/03 04:13:38;;;;;;;;;;;;;;;22.55;49.87;99306.66;5094722;28;19970;-41
2023/06/03 04:16:07;;;;;;;;;;;;;;;22.76;49.85;99315.31;5092295;28;19912;-41
2023/06/03 04:18:37;;;;;;;;;;;;;;;22.89;49.16;99313.75;5096010;28;20295;-40
2023/06/03 04:21:02;;;;;;;;;;;;;;;22.93;48.90;99316.69;5099697;28;19920;-41
2023/06/03 04:23:28;;;;;;;;;;;;;;;23.03;48.58;99322.75;5094251;28;19920;-41
2023/06/03 04:25:53;;;;;;;;;;;;;;;23.19;49.15;99317.91;5094317;28;19981;-40
2023/06/03 04:28:19;;;;;;;;;;;;;;;23.48;47.94;99318.78;5094290;28;19917;-41
2023/06/03 04:30:45;;;;;;;;;;;;;;;23.57;48.00;99323.22;5094462;28;20364;-41
2023/06/03 04:33:10;;;;;;;;;;;;;;;23.49;48.46;99323.09;5094490;28;19913;-41
2023/06/03 04:35:35;;;;;;;;;;;;;;;23.60;49.76;99325.31;5094478;28;19921;-43
2023/06/03 04:38:00;;;;;;;;;;;;;;;23.47;49.02;99325.28;5093893;28;20082;-42
2023/06/03 04:40:27;;;;;;;;;;;;;;;23.83;48.63;99320.03;5092721;28;19913;-42
2023/06/03 04:42:52;;;;;;;;;;;;;;;23.97;52.20;99318.13;5090427;28;20294;-41
2023/06/03 04:45:18;;;;;;;;;;;;;;;24.48;46.67;99315.41;5094105;28;19912;-41
2023/06/03 04:47:43;;;;;;;;;;;;;;;24.84;45.92;99320.06;5094361;28;19916;-42
2023/06/03 04:50:09;;;;;;;;;;;;;;;25.21;46.05;99313.44;5093487;28;20368;-42
2023/06/03 04:52:35;;;;;;;;;;;;;;;25.63;44.63;99311.28;5093814;28;20112;-42
2023/06/03 04:55:01;;;;;;;;;;;;;;;25.97;43.17;99318.00;5094301;28;19979;-41
2023/06/03 04:57:26;;;;;;;;;;;;;;;26.00;43.67;99314.63;5094302;28;20376;-42
2023/06/03 04:59:52;;;;;;;;;;;;;;;25.83;43.81;99312.63;5094068;28;19919;-42
2023/06/03 05:02:20;;;;;;;;;;;;;;;25.93;43.25;99311.56;5093162;28;19922;-43
2023/06/03 05:04:46;;;;;;;;;;;;;;;26.27;42.76;99315.50;5093880;28;19912;-42
2023/06/03 05:07:11;;;;;;;;;;;;;;;26.59;42.16;99321.63;5094076;28;19972;-41
2023/06/03 05:09:37;;;;;;;;;;;;;;;26.84;41.25;99331.75;5093925;28;19968;-43
2023/06/03 05:12:02;;;;;;;;;;;;;;;26.70;41.53;99329.22;5093358;28;19912;-41
2023/06/03 05:14:28;;;;;;;;;;;;;;;27.20;40.53;99327.06;5092897;28;19912;-43
2023/06/03 05:16:53;;;;;;;;;;;;;;;27.69;38.95;99320.19;5093464;28;19912;-42
2023/06/03 05:19:18;;;;;;;;;;;;;;;27.86;38.57;99329.47;5093731;28;19912;-42
2023/06/03 05:21:43;;;;;;;;;;;;;;;28.04;38.22;99330.19;5093600;28;19959;-43
2023/06/03 05:24:09;;;;;;;;;;;;;;;27.91;38.35;99332.03;5093161;28;20386;-42
2023/06/03 05:26:34;;;;;;;;;;;;;;;28.34;37.86;99332.91;5093412;28;19912;-43
2023/06/03 05:28:59;;;;;;;;;;;;;;;28.59;37.71;99334.69;5093133;28;19916;-42
2023/06/03 05:31:24;;;;;;;;;;;;;;;28.76;37.49;99333.75;5093043;28;20006;-41
2023/06/03 05:33:50;;;;;;;;;;;;;;;28.85;36.91;99331.72;5093130;28;19977;-43
2023/06/03 05:36:15;;;;;;;;;;;;;;;29.04;36.39;99338.66;5093467;28;19919;-42
2023/06/03 05:38:40;;;;;;;;;;;;;;;29.27;36.69;99330.09;5093442;28;20345;-41
2023/06/03 05:41:06;;;;;;;;;;;;;;;29.04;36.55;99336.72;5092319;28;20018;-43
2023/06/03 05:43:31;;;;;;;;;;;;;;;29.18;36.18;99322.75;5092303;28;19993;-40
2023/06/03 05:45:57;;;;;;;;;;;;;;;28.81;37.14;99335.50;5092821;28;19919;-41
2023/06/03 05:48:22;;;;;;;;;;;;;;;28.37;39.02;99341.25;5091902;28;19916;-41
2023/06/03 05:50:49;;;;;;;;;;;;;;;28.58;37.73;99332.31;5091623;28;20536;-42
2023/06/03 05:53:14;;;;;;;;;;;;;;;28.71;37.74;99338.63;5092124;28;19912;-44
2023/06/03 05:55:39;;;;;;;;;;;;;;;28.93;37.53;99332.78;5091309;28;20257;-43
2023/06/03 05:58:05;;;;;;;;;;;;;;;29.21;36.70;99335.78;5091136;28;19954;-44
2023/06/03 06:00:30;;;;;;;;;;;;;;;29.49;36.19;99332.41;5091678;28;19999;-41
2023/06/03 06:02:55;;;;;;;;;;;;;;;29.55;36.34;99332.97;5092016;28;19912;-43
2023/06/03 06:05:21;;;;;;;;;;;;;;;28.99;37.05;99339.66;5092116;28;20026;-42
2023/06/03 06:07:46;;;;;;;;;;;;;;;29.47;36.17;99336.63;5091109;28;19916;-43
2023/06/03 06:10:11;;;;;;;;;;;;;;;29.55;36.23;99328.31;5091275;28;19998;-41
2023/06/03 06:12:37;;;;;;;;;;;;;;;29.36;36.10;99333.50;5091685;28;19912;-42
2023/06/03 06:15:02;;;;;;;;;;;;;;;30.05;35.63;99339.34;5090981;28;19919;-42
2023/06/03 06:17:27;;;;;;;;;;;;;;;30.39;34.25;99338.88;5090781;28;19919;-43
2023/06/03 06:19:53;;;;;;;;;;;;;;;29.78;33.38;99330.66;5087502;28;19920;-41
2023/06/03 06:22:18;;;;;;;;;;;;;;;30.00;32.99;99332.13;5086607;28;20543;-42
2023/06/03 06:24:44;;;;;;;;;;;;;;;30.32;32.94;99344.13;5091029;28;20391;-42
2023/06/03 06:27:10;;;;;;;;;;;;;;;30.88;32.43;99334.34;5085483;28;19923;-43
2023/06/03 06:29:35;;;;;;;;;;;;;;;31.60;30.72;99336.31;5089388;28;19930;-42
2023/06/03 06:32:01;;;;;;;;;;;;;;;31.10;31.48;99342.06;5095416;28;19966;-42
2023/06/03 06:34:31;;;;;;;;;;;;;;;30.98;32.13;99337.44;5091417;28;19947;-41
2023/06/03 06:36:57;;;;;;;;;;;;;;;31.31;31.14;99343.81;5091362;28;19912;-41
2023/06/03 06:39:41;;;;;;;;;;;;;;;30.73;32.02;99333.97;5090843;28;19923;-41
2023/06/03 06:42:11;;;;;;;;;;;;;;;30.36;33.06;99345.03;5091335;28;19920;-42
2023/06/03 06:44:49;;;;;;;;;;;;;;;30.47;32.67;99337.13;5090801;28;19912;-42
2023/06/03 06:47:16;;;;;;;;;;;;;;;30.63;32.75;99339.94;5090883;28;19994;-44
2023/06/03 06:49:41;;;;;;;;;;;;;;;31.22;31.51;99343.97;5090632;28;19954;-41
2023/06/03 06:52:11;;;;;;;;;;;;;;;31.83;30.46;99344.75;5091147;28;19951;-42
2023/06/03 06:54:37;;;;;;;;;;;;;;;30.52;31.88;99345.13;5091163;28;20028;-41
2023/06/03 06:57:02;;;;;;;;;;;;;;;30.90;32.64;99341.16;5091084;28;20305;-42
2023/06/03 06:59:28;;;;;;;;;;;;;;;31.35;31.86;99345.47;5090783;28;19920;-41
2023/06/03 07:01:53;;;;;;;;;;;;;;;31.98;31.03;99343.13;5091000;28;20004;-41
2023/06/03 07:04:18;;;;;;;;;;;;;;;31.76;31.71;99346.16;5091372;28;19951;-42
2023/06/03 07:06:44;;;;;;;;;;;;;;;31.41;31.82;99348.78;5091020;28;19920;-42
2023/06/03 07:09:09;;;;;;;;;;;;;;;31.17;32.13;99349.72;5091869;28;19912;-42
2023/06/03 07:11:43;;;;;;;;;;;;;;;32.33;30.70;99343.19;5091461;28;19912;-41
2023/06/03 07:14:08;;;;;;;;;;;;;;;32.74;30.20;99349.19;5090736;28;20015;-47
2023/06/03 07:16:33;;;;;;;;;;;;;;;32.76;30.18;99346.88;5091404;28;20074;-42
2023/06/03 07:18:59;;;;;;;;;;;;;;;33.11;29.92;99349.56;5090785;28;20312;-41
2023/06/03 07:21:25;;;;;;;;;;;;;;;32.54;30.14;99345.63;5090148;28;19935;-43
2023/06/03 07:23:50;;;;;;;;;;;;;;;32.72;30.27;99355.06;5088667;28;20342;-42
2023/06/03 07:26:16;;;;;;;;;;;;;;;33.53;29.19;99358.16;5086243;28;19981;-42
2023/06/03 07:28:41;;;;;;;;;;;;;;;34.13;28.24;99361.16;5089885;28;19927;-45
2023/06/03 07:31:09;;;;;;;;;;;;;;;34.42;28.30;99364.34;5086119;28;19924;-42
2023/06/03 07:33:45;;;;;;;;;;;;;;;35.08;27.34;99362.03;5090262;28;19946;-43
2023/06/03 07:36:12;;;;;;;;;;;;;;;34.98;27.34;99359.97;5089249;28;19959;-43
2023/06/03 07:38:37;;;;;;;;;;;;;;;35.28;26.44;99362.69;5090600;28;19923;-42
2023/06/03 07:41:06;;;;;;;;;;;;;;;35.50;27.38;99354.59;5090606;28;19917;-43
2023/06/03 07:43:35;;;;;;;;;;;;;;;35.77;26.87;99358.78;5090306;28;19920;-41
2023/06/03 07:46:08;;;;;;;;;;;;;;;36.10;26.83;99357.06;5090631;28;20017;-43
2023/06/03 07:48:33;;;;;;;;;;;;;;;36.23;26.30;99357.56;5090642;28;19912;-42
2023/06/03 07:50:59;;;;;;;;;;;;;;;36.25;26.61;99355.19;5090632;28;19923;-42
2023/06/03 07:53:24;;;;;;;;;;;;;;;36.01;26.16;99373.22;5090006;28;19912;-43
2023/06/03 07:55:50;;;;;;;;;;;;;;;35.54;26.69;99358.97;5090591;28;19959;-43
2023/06/03 07:58:16;;;;;;;;;;;;;;;35.34;27.28;99360.34;5090443;28;19951;-42
2023/06/03 08:00:42;;;;;;;;;;;;;;;36.12;26.35;99363.00;5090152;28;19919;-44
2023/06/03 08:03:08;;;;;;;;;;;;;;;35.91;25.95;99355.34;5090193;28;19989;-43
2023/06/03 08:05:34;;;;;;;;;;;;;;;35.41;26.31;99360.41;5090436;28;19918;-42
2023/06/03 08:08:00;;;;;;;;;;;;;;;35.93;26.24;99360.47;5089523;28;20006;-42
2023/06/03 08:10:25;;;;;;;;;;;;;;;35.45;25.92;99361.25;5090295;28;20011;-42
2023/06/03 08:12:50;;;;;;;;;;;;;;;36.05;25.90;99351.09;5090180;28;19970;-42
2023/06/03 08:15:22;;;;;;;;;;;;;;;36.54;25.47;99358.13;5089971;28;19934;-41
2023/06/03 08:17:47;;;;;;;;;;;;;;;36.58;25.26;99353.41;5089605;28;19923;-41
2023/06/03 08:20:12;;;;;;;;;;;;;;;37.38;24.63;99346.94;5089965;28;19917;-42
2023/06/03 08:22:43;;;;;;;;;;;;;;;37.81;23.09;99343.41;5089543;28;20400;-42
2023/06/03 08:25:09;;;;;;;;;;;;;;;38.23;23.09;99350.94;5089561;28;19923;-42
2023/06/03 08:27:35;;;;;;;;;;;;;;;38.11;23.58;99345.78;5088551;28;19917;-42
2023/06/03 08:30:03;;;;;;;;;;;;;;;38.14;23.24;99348.56;5091117;28;19920;-42
2023/06/03 08:32:29;;;;;;;;;;;;;;;38.02;23.79;99345.38;5094572;28;19919;-41
2023/06/03 08:34:54;;;;;;;;;;;;;;;38.52;23.32;99337.72;5098445;28;19939;-42
2023/06/03 08:37:20;;;;;;;;;;;;;;;38.71;23.52;99338.47;5100862;28;19916;-42
2023/06/03 08:39:47;;;;;;;;;;;;;;;38.94;22.44;99345.50;5100031;28;20000;-43
2023/06/03 08:42:14;;;;;;;;;;;;;;;38.78;22.23;99338.44;5097588;28;20077;-42
2023/06/03 08:44:54;;;;;;;;;;;;;;;37.66;22.60;99339.84;5086929;28;19916;-42
2023/06/03 08:47:37;;;;;;;;;;;;;;;37.26;23.15;99336.22;5083506;28;19932;-42
2023/06/03 08:50:13;;;;;;;;;;;;;;;37.06;23.71;99335.78;5093436;28;19912;-43
2023/06/03 08:52:39;;;;;;;;;;;;;;;37.08;23.99;99339.72;5093671;28;19935;-43
2023/06/03 08:55:09;;;;;;;;;;;;;;;36.78;24.24;99349.16;5092964;28;19943;-44
2023/06/03 08:57:38;;;;;;;;;;;;;;;36.08;25.34;99353.91;5093675;28;19977;-40
2023/06/03 09:00:07;;;;;;;;;;;;;;;36.06;24.87;99347.91;5093187;28;19912;-41
2023/06/03 09:02:34;;;;;;;;;;;;;;;35.49;25.83;99348.28;5092643;28;19920;-42
2023/06/03 09:05:01;;;;;;;;;;;;;;;34.32;27.68;99348.44;5092852;28;20376;-42
2023/06/03 09:07:27;;;;;;;;;;;;;;;34.50;26.75;99346.72;5093011;28;19919;-42
2023/06/03 09:09:54;;;;;;;;;;;;;;;34.89;26.95;99346.44;5091144;28;20331;-42
2023/06/03 09:12:19;;;;;;;;;;;;;;;34.24;27.19;99344.78;5092933;28;20350;-41
2023/06/03 09:14:46;;;;;;;;;;;;;;;33.85;28.17;99342.19;5093039;28;19912;-42
2023/06/03 09:17:11;;;;;;;;;;;;;;;33.73;28.31;99348.69;5092798;28;19959;-43
2023/06/03 09:19:37;;;;;;;;;;;;;;;33.99;28.21;99339.66;5092918;28;20400;-43
2023/06/03 09:22:02;;;;;;;;;;;;;;;34.38;27.81;99338.66;5093619;28;19916;-43
2023/06/03 09:24:28;;;;;;;;;;;;;;;34.42;27.28;99345.84;5092833;28;20363;-41
2023/06/03 09:26:53;;;;;;;;;;;;;;;34.63;26.88;99341.72;5093561;28;19912;-42
2023/06/03 09:29:20;;;;;;;;;;;;;;;34.39;26.83;99343.03;5092846;28;20288;-44
2023/06/03 09:31:47;;;;;;;;;;;;;;;33.44;27.63;99345.44;5109484;28;20073;-42
2023/06/03 09:34:13;;;;;;;;;;;;;;;34.06;27.46;99339.78;5107905;28;19919;-42
2023/06/03 09:36:45;;;;;;;;;;;;;;;34.37;26.91;99337.88;5093114;28;19912;-42
2023/06/03 09:39:16;;;;;;;;;;;;;;;34.68;26.42;99343.41;5092874;28;19919;-41
2023/06/03 09:41:41;;;;;;;;;;;;;;;34.16;27.30;99345.84;5092461;28;19916;-41
2023/06/03 09:44:08;;;;;;;;;;;;;;;33.97;27.63;99349.50;5092946;28;20276;-41
2023/06/03 09:46:34;;;;;;;;;;;;;;;33.83;28.20;99341.75;5087907;28;20346;-42
2023/06/03 09:49:12;;;;;;;;;;;;;;;33.30;29.17;99345.97;5093324;28;20429;-41
2023/06/03 09:51:42;;;;;;;;;;;;;;;32.34;30.66;99353.03;5092846;28;20092;-42
2023/06/03 09:54:11;;;;;;;;;;;;;;;32.43;30.51;99344.59;5092349;28;19935;-42
2023/06/03 09:56:37;;;;;;;;;;;;;;;32.19;31.07;99353.88;5086820;28;19922;-36
2023/06/03 09:59:15;;;;;;;;;;;;;;;30.73;33.32;99355.13;5097032;28;19999;-37
2023/06/03 10:01:41;;;;;;;;;;;;;;;30.96;32.94;99361.72;5092353;28;19965;-36
2023/06/03 10:04:07;;;;;;;;;;;;;;;31.68;31.83;99362.84;5092304;28;19920;-36
2023/06/03 10:06:35;;;;;;;;;;;;;;;31.52;32.32;99360.09;5094500;28;19916;-37
2023/06/03 10:09:16;;;;;;;;;;;;;;;31.75;31.16;99328.06;5092692;28;19918;-34
2023/06/03 10:11:46;;;;;;;;;;;;;;;31.87;29.86;99370.38;5090281;28;19912;-36
2023/06/03 10:14:11;;;;;;;;;;;;;;;31.99;30.81;99362.03;5092331;28;19920;-36
2023/06/03 10:16:36;;;;;;;;;;;;;;;32.17;30.93;99358.94;5092057;28;19999;-36
2023/06/03 10:19:03;;;;;;;;;;;;;;;33.07;30.12;99362.47;5091916;28;20302;-36
2023/06/03 10:21:29;;;;;;;;;;;;;;;32.69;29.85;99358.56;5089324;28;20025;-36
2023/06/03 10:23:57;;;;;;;;;;;;;;;31.80;29.98;99351.75;5094258;28;20683;-36
2023/06/03 10:26:23;;;;;;;;;;;;;;;31.36;30.20;99354.56;5102702;28;19923;-37
2023/06/03 10:28:49;;;;;;;;;;;;;;;31.46;30.81;99356.81;5095050;28;20294;-36
2023/06/03 10:31:15;;;;;;;;;;;;;;;30.74;31.59;99359.47;5095881;28;20363;-36
2023/06/03 10:33:40;;;;;;;;;;;;;;;31.02;30.76;99358.72;5089173;28;19970;-36
2023/06/03 10:36:06;;;;;;;;;;;;;;;30.76;31.74;99362.66;5094209;28;19963;-36
2023/06/03 10:38:32;;;;;;;;;;;;;;;30.67;31.27;99351.03;5093690;28;19920;-36
2023/06/03 10:40:59;;;;;;;;;;;;;;;30.80;30.92;99350.63;5092692;28;19920;-36
2023/06/03 10:43:24;;;;;;;;;;;;;;;30.49;31.98;99361.50;5097345;28;19924;-42
2023/06/03 10:45:51;;;;;;;;;;;;;;;30.21;32.33;99351.19;5092676;28;20325;-48
2023/06/03 10:48:17;;;;;;;;;;;;;;;30.90;31.57;99345.81;5093686;28;19950;-41
2023/06/03 10:50:57;;;;;;;;;;;;;;;31.67;31.08;99347.50;5085653;28;19977;-42
2023/06/03 10:53:42;;;;;;;;;;;;;;;32.10;31.16;99345.78;5088607;28;19998;-42
2023/06/03 10:56:07;;;;;;;;;;;;;;;32.02;31.27;99346.78;5087418;28;20460;-35
2023/06/03 10:58:32;;;;;;;;;;;;;;;31.83;31.19;99342.78;5089604;28;20496;-36
2023/06/03 11:00:58;;;;;;;;;;;;;;;31.03;33.24;99343.84;5091280;28;19955;-35
2023/06/03 11:03:25;;;;;;;;;;;;;;;30.15;34.97;99349.84;5091329;28;20356;-35
2023/06/03 11:05:51;;;;;;;;;;;;;;;30.35;34.35;99337.16;5091254;28;19920;-36
2023/06/03 11:08:35;;;;;;;;;;;;;;;29.19;36.57;99338.06;5091274;28;19919;-36
2023/06/03 11:11:00;;;;;;;;;;;;;;;29.11;36.36;99344.41;5087824;28;20414;-35
2023/06/03 11:13:40;;;;;;;;;;;;;;;28.75;37.64;99342.28;5090741;28;19912;-37
2023/06/03 11:16:05;;;;;;;;;;;;;;;29.67;36.13;99345.94;5089974;28;19912;-36
2023/06/03 11:18:31;;;;;;;;;;;;;;;29.66;36.53;99342.38;5091215;28;20281;-37
2023/06/03 11:20:56;;;;;;;;;;;;;;;30.33;35.33;99345.75;5091348;28;20023;-36
2023/06/03 11:23:40;;;;;;;;;;;;;;;29.66;35.65;99333.34;5091228;28;19923;-36
2023/06/03 11:26:25;;;;;;;;;;;;;;;30.29;35.22;99344.81;5089595;28;19912;-36
2023/06/03 11:28:50;;;;;;;;;;;;;;;30.32;35.01;99341.38;5090664;28;20009;-35
2023/06/03 11:31:17;;;;;;;;;;;;;;;29.41;35.75;99347.00;5088668;28;19924;-35
2023/06/03 11:34:03;;;;;;;;;;;;;;;29.39;36.90;99341.06;5090565;28;19946;-36
2023/06/03 11:36:46;;;;;;;;;;;;;;;29.88;35.64;99343.91;5089496;28;19976;-36
2023/06/03 11:39:12;;;;;;;;;;;;;;;29.48;37.07;99344.53;5090086;28;20327;-37
2023/06/03 11:41:56;;;;;;;;;;;;;;;29.46;36.69;99344.06;5090390;28;19995;-36
2023/06/03 11:44:22;;;;;;;;;;;;;;;29.49;36.82;99348.06;5090047;28;19912;-36
2023/06/03 11:46:53;;;;;;;;;;;;;;;29.81;36.15;99358.16;5090655;28;19939;-36
2023/06/03 11:49:22;;;;;;;;;;;;;;;30.09;36.32;99354.75;5087878;28;19912;-36
2023/06/03 11:51:49;;;;;;;;;;;;;;;30.12;36.52;99356.00;5090896;28;19912;-36
2023/06/03 11:54:16;;;;;;;;;;;;;;;30.40;36.25;99356.13;5090503;28;19961;-35
2023/06/03 11:56:44;;;;;;;;;;;;;;;29.99;36.79;99364.25;5090757;28;19969;-36
2023/06/03 11:59:11;;;;;;;;;;;;;;;29.12;37.99;99362.41;5090733;28;19912;-36
2023/06/03 12:01:36;;;;;;;;;;;;;;;28.86;39.52;99368.13;5087603;28;20421;-36
2023/06/03 12:04:02;;;;;;;;;;;;;;;29.33;38.44;99356.13;5091115;28;19916;-36
2023/06/03 12:06:36;;;;;;;;;;;;;;;29.35;37.88;99362.06;5090563;28;20401;-36
2023/06/03 12:09:02;;;;;;;;;;;;;;;29.38;38.36;99361.41;5088247;28;19965;-36
2023/06/03 12:11:29;;;;;;;;;;;;;;;29.51;38.44;99359.47;5089984;28;19916;-36
2023/06/03 12:13:54;;;;;;;;;;;;;;;29.24;38.30;99368.00;5090176;28;19962;-36
2023/06/03 12:16:31;;;;;;;;;;;;;;;29.62;38.35;99355.16;5090220;28;19955;-36
2023/06/03 12:18:56;;;;;;;;;;;;;;;30.08;37.48;99346.88;5090513;28;19930;-36
2023/06/03 12:21:22;;;;;;;;;;;;;;;30.24;37.24;99347.00;5090066;28;19931;-35
2023/06/03 12:23:47;;;;;;;;;;;;;;;30.07;38.45;99364.47;5093793;28;19912;-35
2023/06/03 12:26:13;;;;;;;;;;;;;;;30.15;37.15;99353.38;5094635;28;19919;-35
2023/06/03 12:28:38;;;;;;;;;;;;;;;30.36;36.55;99355.22;5093837;28;19923;-38
2023/06/03 12:31:12;;;;;;;;;;;;;;;30.48;36.48;99348.91;5095271;28;19924;-35
2023/06/03 12:33:39;;;;;;;;;;;;;;;29.57;37.46;99360.88;5092045;28;19923;-36
2023/06/03 12:36:04;;;;;;;;;;;;;;;29.28;38.04;99356.34;5093661;28;19923;-36
2023/06/03 12:38:29;;;;;;;;;;;;;;;29.89;38.74;99361.16;5093928;28;19916;-36
2023/06/03 12:41:10;;;;;;;;;;;;;;;29.88;37.67;99343.13;5093367;28;19912;-36
2023/06/03 12:43:36;;;;;;;;;;;;;;;29.60;37.66;99333.56;5094448;28;19912;-36
2023/06/03 12:46:16;;;;;;;;;;;;;;;29.35;38.61;99338.19;5094035;28;20353;-36
2023/06/03 12:48:41;;;;;;;;;;;;;;;29.21;36.58;99326.78;5092567;28;19916;-37